Time;durP1;ratioP1;P1;durP2;ratioP2;P2;SDS_P1;SDS_P2;PMS_P1;PMS_P2;Temp;Humidity;BMP_temperature;BMP_pressure;BME280_temperature;BME280_humidity;BME280_pressure;Samples;Min_cycle;Max_cycle;Signal;HPM_P1;HPM_P2
2023/05/31 00:01:23;;;;;;;4.17;3.87;;;15.30;1.00;;;;;;5015113;28;20228;-69
2023/05/31 00:03:49;;;;;;;3.80;3.50;;;15.10;1.00;;;;;;5032587;28;20182;-69
2023/05/31 00:06:14;;;;;;;3.70;3.40;;;15.10;1.00;;;;;;5015058;28;20241;-69
2023/05/31 00:08:41;;;;;;;4.30;4.00;;;14.90;1.00;;;;;;5032712;28;20221;-69
2023/05/31 00:11:06;;;;;;;3.90;3.50;;;14.80;1.00;;;;;;5032708;28;20224;-69
2023/05/31 00:13:32;;;;;;;5.33;3.43;;;14.70;1.00;;;;;;5014778;28;20450;-69
2023/05/31 00:15:58;;;;;;;4.33;4.00;;;14.70;1.00;;;;;;5032786;28;20776;-69
2023/05/31 00:18:24;;;;;;;4.73;4.13;;;14.60;1.00;;;;;;5032589;28;20198;-69
2023/05/31 00:20:49;;;;;;;4.20;3.83;;;14.60;1.00;;;;;;5032519;28;20856;-69
2023/05/31 00:23:15;;;;;;;4.93;3.80;;;14.50;1.00;;;;;;5031657;28;20265;-69
2023/05/31 00:25:41;;;;;;;3.87;3.50;;;14.40;1.00;;;;;;5032399;28;20258;-69
2023/05/31 00:28:06;;;;;;;4.53;3.70;;;14.20;1.00;;;;;;5032370;28;20205;-69
2023/05/31 00:30:32;;;;;;;4.20;3.43;;;14.10;1.00;;;;;;5032595;28;20214;-69
2023/05/31 00:32:57;;;;;;;3.80;3.30;;;14.10;1.00;;;;;;5032069;28;20182;-69
2023/05/31 00:35:23;;;;;;;3.77;3.40;;;14.10;1.00;;;;;;5032242;28;20185;-69
2023/05/31 00:37:48;;;;;;;4.33;3.93;;;14.00;1.00;;;;;;5031835;28;20688;-69
2023/05/31 00:40:14;;;;;;;6.83;3.93;;;13.90;1.00;;;;;;5032131;28;20186;-69
2023/05/31 00:42:40;;;;;;;3.97;3.50;;;13.90;1.00;;;;;;5032092;28;20177;-69
2023/05/31 00:45:06;;;;;;;4.20;3.63;;;13.80;1.00;;;;;;5032186;28;20180;-69
2023/05/31 00:47:33;;;;;;;5.47;3.03;;;13.80;1.00;;;;;;5032033;28;20275;-69
2023/05/31 00:49:58;;;;;;;3.97;3.57;;;13.80;1.00;;;;;;5032113;28;20770;-69
2023/05/31 00:52:25;;;;;;;5.10;4.63;;;13.80;1.00;;;;;;5031604;28;20426;-69
2023/05/31 00:54:51;;;;;;;3.77;3.43;;;13.80;1.00;;;;;;5014296;28;20184;-69
2023/05/31 00:57:17;;;;;;;4.03;3.63;;;13.80;1.00;;;;;;5031966;28;20529;-69
2023/05/31 00:59:43;;;;;;;4.33;3.93;;;13.80;1.00;;;;;;5014306;28;20684;-69
2023/05/31 01:02:11;;;;;;;4.80;4.40;;;13.80;1.00;;;;;;5031653;28;20701;-69
2023/05/31 01:04:36;;;;;;;3.57;3.27;;;13.80;1.00;;;;;;5014116;28;20454;-69
2023/05/31 01:07:02;;;;;;;3.80;3.50;;;13.70;1.00;;;;;;5031716;28;20873;-69
2023/05/31 01:09:30;;;;;;;3.80;3.47;;;13.70;1.00;;;;;;5031869;28;20201;-69
2023/05/31 01:12:08;;;;;;;3.87;3.43;;;13.70;1.00;;;;;;5013876;28;20254;-69
2023/05/31 01:15:08;;;;;;;4.80;3.83;;;13.70;1.00;;;;;;5031891;28;20832;-69
2023/05/31 01:18:01;;;;;;;5.07;4.03;;;13.70;1.00;;;;;;5031788;28;20529;-69
2023/05/31 01:20:34;;;;;;;4.90;4.03;;;13.70;1.00;;;;;;5031775;28;20401;-69
2023/05/31 01:23:25;;;;;;;3.57;3.27;;;13.60;1.00;;;;;;5031465;28;20413;-69
2023/05/31 01:25:59;;;;;;;3.50;3.00;;;13.60;1.00;;;;;;5031783;28;20771;-69
2023/05/31 01:28:27;;;;;;;4.23;3.50;;;13.50;1.00;;;;;;5031641;28;20698;-69
2023/05/31 01:30:54;;;;;;;4.20;3.90;;;13.50;1.00;;;;;;5013950;28;20476;-69
2023/05/31 01:33:21;;;;;;;5.27;3.93;;;13.50;1.00;;;;;;5031376;28;20419;-69
2023/05/31 01:35:46;;;;;;;4.13;3.70;;;13.40;1.00;;;;;;5034279;28;20426;-69
2023/05/31 01:38:12;;;;;;;4.03;3.60;;;13.40;1.00;;;;;;5035708;28;21005;-70
2023/05/31 01:40:39;;;;;;;4.10;3.70;;;13.40;1.00;;;;;;5035528;28;20637;-70
2023/05/31 01:43:05;;;;;;;6.30;3.57;;;13.40;1.00;;;;;;5035249;28;20204;-70
2023/05/31 01:45:32;;;;;;;4.53;3.70;;;13.40;1.00;;;;;;5035531;28;20536;-71
2023/05/31 01:48:03;;;;;;;3.27;2.97;;;13.30;1.00;;;;;;5035425;28;20438;-68
2023/05/31 01:50:29;;;;;;;4.33;3.93;;;13.30;1.00;;;;;;5035442;28;20415;-70
2023/05/31 01:52:55;;;;;;;3.57;3.27;;;13.30;1.00;;;;;;5035158;28;20833;-70
2023/05/31 01:55:20;;;;;;;3.60;3.30;;;13.30;1.00;;;;;;5035574;28;20419;-70
2023/05/31 01:57:47;;;;;;;4.53;3.87;;;13.30;1.00;;;;;;5035383;28;20617;-70
2023/05/31 02:00:14;;;;;;;10.33;4.30;;;13.30;1.00;;;;;;5035544;28;20571;-70
2023/05/31 02:02:44;;;;;;;4.70;4.30;;;13.40;1.00;;;;;;5035162;28;20411;-70
2023/05/31 02:05:11;;;;;;;4.47;4.07;;;13.40;1.00;;;;;;5035849;28;20441;-71
2023/05/31 02:07:41;;;;;;;3.90;3.53;;;13.50;1.00;;;;;;5035920;28;20453;-70
2023/05/31 02:10:07;;;;;;;4.63;3.70;;;13.50;1.00;;;;;;5035866;28;20846;-70
2023/05/31 02:12:32;;;;;;;4.10;3.70;;;13.50;1.00;;;;;;5035442;28;20423;-71
2023/05/31 02:14:58;;;;;;;3.73;3.33;;;13.40;1.00;;;;;;5035665;28;20423;-70
2023/05/31 02:17:24;;;;;;;4.60;4.23;;;13.50;1.00;;;;;;5035437;28;20207;-70
2023/05/31 02:19:53;;;;;;;3.67;3.37;;;13.60;1.00;;;;;;5017690;28;20549;-70
2023/05/31 02:22:20;;;;;;;3.93;3.63;;;13.50;1.00;;;;;;5035640;28;20414;-71
2023/05/31 02:24:46;;;;;;;5.00;4.43;;;13.50;1.00;;;;;;5035396;28;20922;-71
2023/05/31 02:27:12;;;;;;;5.43;3.47;;;13.50;1.00;;;;;;5035521;28;20435;-71
2023/05/31 02:29:38;;;;;;;3.40;3.07;;;13.50;1.00;;;;;;5017852;28;20230;-70
2023/05/31 02:32:03;;;;;;;5.50;4.33;;;13.40;1.00;;;;;;5035181;28;20422;-70
2023/05/31 02:34:30;;;;;;;4.03;3.63;;;13.40;1.00;;;;;;5034909;28;20187;-70
2023/05/31 02:36:56;;;;;;;3.63;3.33;;;13.40;1.00;;;;;;5017113;28;20560;-70
2023/05/31 02:39:21;;;;;;;4.90;3.83;;;13.50;1.00;;;;;;5035036;28;21003;-70
2023/05/31 02:41:47;;;;;;;4.57;4.17;;;13.40;1.00;;;;;;5017021;28;20233;-69
2023/05/31 02:44:13;;;;;;;4.00;3.70;;;13.40;1.00;;;;;;5034740;28;20177;-70
2023/05/31 02:46:39;;;;;;;4.27;3.70;;;13.40;1.00;;;;;;5034455;28;20194;-69
2023/05/31 02:49:06;;;;;;;5.10;3.83;;;13.40;1.00;;;;;;5034814;28;20411;-69
2023/05/31 02:51:32;;;;;;;4.17;2.90;;;13.40;1.00;;;;;;5034706;28;21001;-70
2023/05/31 02:53:57;;;;;;;7.23;3.50;;;13.40;1.00;;;;;;5016997;28;20432;-70
2023/05/31 02:56:23;;;;;;;3.77;3.47;;;13.30;1.00;;;;;;5035252;28;20214;-70
2023/05/31 02:58:49;;;;;;;6.43;4.57;;;13.40;1.00;;;;;;5034714;28;20666;-69
2023/05/31 03:01:15;;;;;;;4.63;4.23;;;13.40;1.00;;;;;;5016926;28;20423;-70
2023/05/31 03:03:41;;;;;;;5.17;3.93;;;13.40;1.00;;;;;;5034485;28;20183;-70
2023/05/31 03:06:06;;;;;;;4.47;4.07;;;13.40;1.00;;;;;;5016498;28;20187;-69
2023/05/31 03:08:32;;;;;;;5.43;4.27;;;13.50;1.00;;;;;;5034370;28;20415;-70
2023/05/31 03:10:57;;;;;;;4.07;3.77;;;13.50;1.00;;;;;;5034075;28;20688;-69
2023/05/31 03:13:23;;;;;;;3.93;3.63;;;13.40;1.00;;;;;;5033812;28;20205;-69
2023/05/31 03:15:49;;;;;;;4.20;3.90;;;13.40;1.00;;;;;;5034209;28;20218;-69
2023/05/31 03:18:15;;;;;;;6.23;4.27;;;13.40;1.00;;;;;;5016138;28;20642;-69
2023/05/31 03:20:41;;;;;;;3.93;3.63;;;13.40;1.00;;;;;;5034443;28;20462;-69
2023/05/31 03:23:07;;;;;;;6.97;5.30;;;13.40;1.00;;;;;;5033969;28;20180;-69
2023/05/31 03:25:33;;;;;;;4.77;3.67;;;13.50;1.00;;;;;;5034248;28;20414;-70
2023/05/31 03:27:58;;;;;;;5.23;3.50;;;13.60;1.00;;;;;;5034358;28;20446;-69
2023/05/31 03:30:24;;;;;;;6.17;3.60;;;13.60;1.00;;;;;;5016499;28;20986;-69
2023/05/31 03:32:50;;;;;;;4.40;3.67;;;13.60;1.00;;;;;;5033819;28;20645;-69
2023/05/31 03:35:16;;;;;;;7.00;3.37;;;13.60;1.00;;;;;;5016213;28;20435;-70
2023/05/31 03:37:42;;;;;;;4.07;3.77;;;13.60;1.00;;;;;;5033907;28;20913;-69
2023/05/31 03:40:08;;;;;;;6.23;3.87;;;13.50;1.00;;;;;;5034142;28;20415;-70
2023/05/31 03:42:34;;;;;;;3.93;3.50;;;13.50;1.00;;;;;;5033614;28;20176;-69
2023/05/31 03:45:00;;;;;;;4.47;4.07;;;13.50;1.00;;;;;;5033916;28;20498;-69
2023/05/31 03:47:26;;;;;;;4.03;3.67;;;13.50;1.00;;;;;;5035380;28;20517;-69
2023/05/31 03:49:52;;;;;;;3.93;3.63;;;13.50;1.00;;;;;;5020853;28;20422;-70
2023/05/31 03:52:17;;;;;;;4.30;3.10;;;13.40;1.00;;;;;;5035363;28;20178;-70
2023/05/31 03:54:43;;;;;;;4.23;3.67;;;13.50;1.00;;;;;;5036649;28;20544;-69
2023/05/31 03:57:08;;;;;;;4.30;3.90;;;13.50;1.00;;;;;;5033292;28;20277;-69
2023/05/31 03:59:35;;;;;;;4.13;3.83;;;13.50;1.00;;;;;;5015955;28;20221;-69
2023/05/31 04:02:00;;;;;;;3.87;3.43;;;13.50;1.00;;;;;;5015683;28;20723;-69
2023/05/31 04:04:26;;;;;;;4.00;3.50;;;13.50;1.00;;;;;;5033256;28;20437;-69
2023/05/31 04:06:56;;;;;;;4.10;3.67;;;13.50;1.00;;;;;;5033206;28;20195;-69
2023/05/31 04:09:23;;;;;;;3.60;3.30;;;13.50;1.00;;;;;;5033386;28;20643;-69
2023/05/31 04:11:56;;;;;;;4.83;3.30;;;13.50;1.00;;;;;;5015191;28;20452;-69
2023/05/31 04:14:21;;;;;;;5.30;3.87;;;13.40;1.00;;;;;;5032921;28;20429;-70
2023/05/31 04:16:47;;;;;;;4.17;3.87;;;13.40;1.00;;;;;;5015426;28;20968;-69
2023/05/31 04:19:13;;;;;;;5.30;3.60;;;13.40;1.00;;;;;;5032762;28;20211;-69
2023/05/31 04:21:39;;;;;;;5.90;3.63;;;13.40;1.00;;;;;;5014660;28;20183;-69
2023/05/31 04:24:05;;;;;;;3.57;3.27;;;13.40;1.00;;;;;;5032844;28;20496;-69
2023/05/31 04:26:32;;;;;;;3.50;3.20;;;13.30;1.00;;;;;;5032722;28;21042;-69
2023/05/31 04:28:58;;;;;;;5.03;4.43;;;13.20;1.00;;;;;;5014887;28;20424;-69
2023/05/31 04:31:24;;;;;;;4.03;3.43;;;13.10;1.00;;;;;;5014875;28;20425;-69
2023/05/31 04:33:53;;;;;;;3.57;3.07;;;13.10;1.00;;;;;;5032402;28;20916;-69
2023/05/31 04:36:22;;;;;;;7.23;3.93;;;13.10;1.00;;;;;;5032480;28;20282;-69
2023/05/31 04:38:48;;;;;;;3.87;3.47;;;13.00;1.00;;;;;;5032427;28;20462;-70
2023/05/31 04:41:15;;;;;;;4.10;2.97;;;12.90;1.00;;;;;;5032393;28;20413;-69
2023/05/31 04:43:42;;;;;;;5.43;3.37;;;12.90;1.00;;;;;;5032760;28;20668;-69
2023/05/31 04:46:09;;;;;;;3.53;3.00;;;12.90;1.00;;;;;;5032343;28;20410;-69
2023/05/31 04:48:36;;;;;;;2.80;2.60;;;12.90;1.00;;;;;;5032314;28;20421;-70
2023/05/31 04:51:02;;;;;;;3.57;3.20;;;13.00;1.00;;;;;;5032446;28;20465;-69
2023/05/31 04:53:27;;;;;;;5.23;2.80;;;13.10;1.00;;;;;;5014252;28;20465;-70
2023/05/31 04:55:53;;;;;;;3.97;3.57;;;13.10;1.00;;;;;;5032327;28;20645;-69
2023/05/31 04:58:19;;;;;;;4.80;3.90;;;13.20;1.00;;;;;;5031874;28;20206;-69
2023/05/31 05:00:45;;;;;;;4.30;3.07;;;13.30;1.00;;;;;;5032186;28;20173;-69
2023/05/31 05:03:11;;;;;;;4.30;2.60;;;13.30;1.00;;;;;;5031793;28;20541;-69
2023/05/31 05:05:37;;;;;;;3.40;3.10;;;13.40;1.00;;;;;;5032127;28;20404;-69
2023/05/31 05:08:03;;;;;;;2.63;2.37;;;13.40;1.00;;;;;;5014516;28;20438;-70
2023/05/31 05:10:29;;;;;;;3.87;2.83;;;13.50;1.00;;;;;;5031977;28;20915;-69
2023/05/31 05:12:54;;;;;;;4.13;3.33;;;13.60;1.00;;;;;;5031777;28;20442;-69
2023/05/31 05:15:20;;;;;;;3.07;2.87;;;13.60;1.00;;;;;;5032098;28;20179;-69
2023/05/31 05:17:46;;;;;;;3.23;2.80;;;13.70;1.00;;;;;;5031640;28;20230;-69
2023/05/31 05:20:12;;;;;;;4.43;4.00;;;13.80;1.00;;;;;;5031950;28;20202;-69
2023/05/31 05:22:38;;;;;;;5.57;3.87;;;13.90;1.00;;;;;;5031740;28;20192;-70
2023/05/31 05:25:04;;;;;;;6.40;3.67;;;14.00;1.00;;;;;;5031837;28;20424;-69
2023/05/31 05:27:29;;;;;;;4.30;2.90;;;14.10;1.00;;;;;;5031735;28;20193;-69
2023/05/31 05:29:55;;;;;;;7.00;4.10;;;14.20;1.00;;;;;;5031894;28;20408;-69
2023/05/31 05:32:21;;;;;;;6.40;4.40;;;14.40;1.00;;;;;;5031462;28;20305;-69
2023/05/31 05:34:47;;;;;;;6.67;4.67;;;15.90;1.00;;;;;;5031529;28;20227;-70
2023/05/31 05:37:12;;;;;;;4.90;4.50;;;17.20;1.00;;;;;;5031513;28;20246;-70
2023/05/31 05:39:38;;;;;;;5.40;4.70;;;17.30;1.00;;;;;;5031782;28;20233;-69
2023/05/31 05:42:04;;;;;;;4.50;4.13;;;17.00;1.00;;;;;;5031542;28;20254;-69
2023/05/31 05:44:32;;;;;;;8.97;4.97;;;16.80;1.00;;;;;;5031939;28;20182;-70
2023/05/31 05:46:58;;;;;;;6.10;5.50;;;16.90;1.00;;;;;;5013836;28;20199;-69
2023/05/31 05:49:23;;;;;;;5.40;4.90;;;18.00;1.00;;;;;;5014303;28;20961;-69
2023/05/31 05:51:49;;;;;;;4.70;4.10;;;20.00;1.00;;;;;;5031826;28;20176;-69
2023/05/31 05:54:15;;;;;;;7.37;4.00;;;20.70;1.00;;;;;;5031886;28;20207;-69
2023/05/31 05:56:40;;;;;;;5.20;4.70;;;21.50;1.00;;;;;;5031604;28;20253;-70
2023/05/31 05:59:06;;;;;;;6.00;5.50;;;22.80;1.00;;;;;;5031509;28;20207;-69
2023/05/31 06:01:31;;;;;;;6.13;5.37;;;24.30;1.00;;;;;;5031328;28;20176;-70
2023/05/31 06:03:57;;;;;;;5.53;4.90;;;24.40;1.00;;;;;;5031443;28;20267;-70
2023/05/31 06:06:22;;;;;;;6.87;6.10;;;25.00;1.00;;;;;;5031490;28;20199;-70
2023/05/31 06:08:48;;;;;;;11.23;4.57;;;26.10;1.00;;;;;;5031395;28;20171;-70
2023/05/31 06:11:18;;;;;;;5.43;4.93;;;26.70;1.00;;;;;;5031304;28;20237;-70
2023/05/31 06:13:44;;;;;;;5.10;4.70;;;27.20;1.00;;;;;;5031467;28;20175;-70
2023/05/31 06:16:10;;;;;;;5.40;5.00;;;28.20;1.00;;;;;;5031412;28;20425;-70
2023/05/31 06:18:35;;;;;;;4.30;4.00;;;29.70;1.00;;;;;;5032386;28;20210;-70
2023/05/31 06:21:01;;;;;;;5.17;4.70;;;30.40;1.00;;;;;;5033098;28;20414;-70
2023/05/31 06:23:28;;;;;;;5.77;5.10;;;30.00;1.00;;;;;;5034688;28;20179;-70
2023/05/31 06:25:53;;;;;;;8.20;5.00;;;30.50;1.00;;;;;;5035015;28;20186;-70
2023/05/31 06:28:19;;;;;;;6.87;5.30;;;30.30;1.00;;;;;;5034678;28;20430;-70
2023/05/31 06:30:44;;;;;;;5.33;4.87;;;30.60;1.00;;;;;;5034642;28;20519;-69
2023/05/31 06:33:10;;;;;;;4.70;4.40;;;31.20;1.00;;;;;;5035349;28;20185;-70
2023/05/31 06:35:36;;;;;;;5.80;5.30;;;31.60;1.00;;;;;;5034666;28;20175;-70
2023/05/31 06:38:03;;;;;;;5.93;4.53;;;31.90;1.00;;;;;;5034362;28;20758;-71
2023/05/31 06:40:29;;;;;;;5.10;4.70;;;32.30;1.00;;;;;;5034623;28;20171;-70
2023/05/31 06:42:55;;;;;;;5.47;4.97;;;31.90;1.00;;;;;;5034143;28;20436;-70
2023/05/31 06:45:20;;;;;;;4.97;4.57;;;32.00;1.00;;;;;;5034366;28;20250;-70
2023/05/31 06:47:46;;;;;;;4.70;4.40;;;32.70;1.00;;;;;;5034457;28;20199;-70
2023/05/31 06:50:12;;;;;;;4.57;4.27;;;32.80;1.00;;;;;;5034498;28;20233;-70
2023/05/31 06:52:39;;;;;;;8.63;5.50;;;32.80;1.00;;;;;;5017059;28;20175;-70
2023/05/31 06:55:06;;;;;;;7.43;5.20;;;33.90;1.00;;;;;;5035562;28;20954;-70
2023/05/31 06:57:31;;;;;;;5.77;5.30;;;34.20;1.00;;;;;;5034177;28;20465;-70
2023/05/31 06:59:57;;;;;;;4.97;4.53;;;34.70;1.00;;;;;;5034195;28;20473;-70
2023/05/31 07:02:26;;;;;;;9.30;5.00;;;33.70;1.00;;;;;;5034052;28;20179;-70
2023/05/31 07:04:51;;;;;;;11.93;5.50;;;33.50;1.00;;;;;;5034277;28;20410;-70
2023/05/31 07:07:17;;;;;;;6.20;4.57;;;33.50;1.00;;;;;;5034150;28;20806;-70
2023/05/31 07:09:43;;;;;;;5.13;4.73;;;33.70;1.00;;;;;;5034325;28;20175;-70
2023/05/31 07:12:08;;;;;;;4.83;4.53;;;34.10;1.00;;;;;;5015997;28;20253;-70
2023/05/31 07:14:35;;;;;;;4.77;4.37;;;35.30;1.00;;;;;;5034353;28;20675;-70
2023/05/31 07:17:01;;;;;;;5.60;5.10;;;35.10;1.00;;;;;;5033955;28;20333;-70
2023/05/31 07:19:28;;;;;;;6.10;5.50;;;35.90;1.00;;;;;;5034072;28;20905;-69
2023/05/31 07:21:54;;;;;;;4.70;4.40;;;36.80;1.00;;;;;;5033682;28;20522;-70
2023/05/31 07:24:19;;;;;;;5.27;4.77;;;37.00;1.00;;;;;;5016208;28;20441;-69
2023/05/31 07:26:45;;;;;;;9.10;5.47;;;35.60;1.00;;;;;;5033889;28;20195;-70
2023/05/31 07:29:11;;;;;;;5.30;4.70;;;34.20;1.00;;;;;;5033681;28;20171;-70
2023/05/31 07:31:37;;;;;;;6.70;6.20;;;34.50;1.00;;;;;;5033194;28;20672;-70
2023/05/31 07:34:03;;;;;;;4.60;4.30;;;33.90;1.00;;;;;;5032909;28;20406;-70
2023/05/31 07:38:56;;;;;;;5.40;5.00;;;36.10;1.00;;;;;;5019336;28;20244;-69
2023/05/31 07:41:22;;;;;;;5.53;5.03;;;36.30;1.00;;;;;;5020838;28;20414;-68
2023/05/31 07:43:47;;;;;;;5.00;4.60;;;35.90;1.00;;;;;;5021067;28;20168;-70
2023/05/31 07:46:13;;;;;;;5.03;4.60;;;36.30;1.00;;;;;;5020411;28;20179;-70
2023/05/31 07:48:38;;;;;;;5.13;4.63;;;36.40;1.00;;;;;;5003718;28;20290;-70
2023/05/31 07:51:05;;;;;;;4.70;4.30;;;36.20;1.00;;;;;;5020860;28;20176;-70
2023/05/31 07:53:30;;;;;;;6.10;5.50;;;35.30;1.00;;;;;;5020865;28;20168;-69
2023/05/31 07:55:56;;;;;;;9.80;5.80;;;35.40;1.00;;;;;;5022038;28;20411;-70
2023/05/31 07:58:22;;;;;;;6.13;5.33;;;35.60;1.00;;;;;;5022038;28;20204;-70
2023/05/31 08:00:49;;;;;;;5.97;5.37;;;36.80;1.00;;;;;;5021115;28;20172;-70
2023/05/31 08:03:15;;;;;;;5.40;5.00;;;37.80;1.00;;;;;;5020457;28;20195;-70
2023/05/31 08:05:41;;;;;;;5.03;4.53;;;37.60;1.00;;;;;;5020317;28;20418;-71
2023/05/31 08:08:06;;;;;;;7.37;4.47;;;37.80;1.00;;;;;;5018618;28;20196;-71
2023/05/31 08:10:32;;;;;;;5.97;5.47;;;37.90;1.00;;;;;;5020160;28;20251;-70
2023/05/31 08:12:58;;;;;;;8.10;5.17;;;38.00;1.00;;;;;;5020037;28;20243;-70
2023/05/31 08:15:23;;;;;;;5.97;5.47;;;37.30;1.00;;;;;;5003131;28;20184;-69
2023/05/31 08:17:50;;;;;;;5.40;5.00;;;37.50;1.00;;;;;;5020434;28;20204;-69
2023/05/31 08:20:16;;;;;;;4.90;4.60;;;37.00;1.00;;;;;;5020421;28;20172;-70
2023/05/31 08:22:44;;;;;;;5.03;4.63;;;36.10;1.00;;;;;;5020758;28;20959;-70
2023/05/31 08:25:12;;;;;;;5.73;5.23;;;35.70;1.00;;;;;;5020618;28;20470;-69
2023/05/31 08:27:39;;;;;;;5.30;4.90;;;36.60;1.00;;;;;;5020549;28;20525;-69
2023/05/31 08:30:06;;;;;;;5.70;5.20;;;36.30;1.00;;;;;;5020293;28;20446;-70
2023/05/31 08:32:32;;;;;;;6.10;5.13;;;35.90;1.00;;;;;;5021809;28;20841;-70
2023/05/31 08:34:57;;;;;;;11.20;5.80;;;35.90;1.00;;;;;;5020843;28;20421;-70
2023/05/31 08:37:23;;;;;;;6.37;5.77;;;34.50;1.00;;;;;;5002789;28;20219;-70
2023/05/31 08:39:48;;;;;;;6.23;5.63;;;34.20;1.00;;;;;;5019704;28;20182;-69
2023/05/31 08:42:51;;;;;;;4.97;4.57;;;33.50;1.00;;;;;;5018119;28;20184;-70
2023/05/31 08:45:18;;;;;;;7.63;4.90;;;33.80;1.00;;;;;;5017505;28;20196;-70
2023/05/31 08:48:07;;;;;;;6.20;5.73;;;33.70;1.00;;;;;;5019559;28;20522;-70
2023/05/31 08:50:34;;;;;;;5.73;5.23;;;34.10;1.00;;;;;;5019009;28;20777;-69
2023/05/31 08:52:59;;;;;;;6.03;5.47;;;36.10;1.00;;;;;;5019654;28;20423;-70
2023/05/31 08:55:26;;;;;;;7.93;5.03;;;35.10;1.00;;;;;;5019021;28;20496;-70
2023/05/31 08:57:52;;;;;;;9.43;5.30;;;34.70;1.00;;;;;;5017942;28;20207;-70
2023/05/31 09:00:19;;;;;;;5.20;4.90;;;34.50;1.00;;;;;;5017442;28;20442;-70
2023/05/31 09:02:47;;;;;;;5.50;4.93;;;35.10;1.00;;;;;;5019072;28;20411;-70
2023/05/31 09:05:14;;;;;;;5.67;5.17;;;36.30;1.00;;;;;;5018757;28;20792;-70
2023/05/31 09:07:39;;;;;;;6.23;5.13;;;35.20;1.00;;;;;;5001471;28;20521;-70
2023/05/31 09:10:08;;;;;;;6.63;5.50;;;34.60;1.00;;;;;;5002470;28;20450;-70
2023/05/31 09:12:34;;;;;;;5.13;4.73;;;33.70;1.00;;;;;;5019756;28;20187;-69
2023/05/31 09:15:00;;;;;;;6.07;5.10;;;31.20;1.00;;;;;;5020247;28;20438;-69
2023/05/31 09:17:25;;;;;;;5.23;4.80;;;29.60;1.00;;;;;;5020892;28;20238;-69
2023/05/31 09:19:54;;;;;;;5.10;4.70;;;27.70;1.00;;;;;;5021858;28;20426;-69
2023/05/31 09:22:21;;;;;;;5.90;5.40;;;26.30;1.00;;;;;;5020229;28;20204;-69
2023/05/31 09:24:57;;;;;;;5.60;5.10;;;25.60;1.00;;;;;;5021209;28;20411;-68
2023/05/31 09:27:26;;;;;;;8.10;5.43;;;25.10;1.00;;;;;;5022286;28;20442;-68
2023/05/31 09:29:56;;;;;;;11.30;5.13;;;24.50;1.00;;;;;;5022137;28;20419;-69
2023/05/31 09:32:22;;;;;;;6.03;5.43;;;24.30;1.00;;;;;;5021775;28;20419;-69
2023/05/31 09:34:47;;;;;;;5.63;5.20;;;24.00;1.00;;;;;;5022476;28;20446;-69
2023/05/31 09:37:23;;;;;;;7.83;5.43;;;23.70;1.00;;;;;;5022013;28;20901;-69
2023/05/31 09:39:56;;;;;;;7.50;4.80;;;23.60;1.00;;;;;;5004808;28;20193;-69
2023/05/31 09:42:24;;;;;;;6.83;6.10;;;23.60;1.00;;;;;;5023224;28;20395;-69
2023/05/31 09:44:51;;;;;;;5.77;5.37;;;23.70;1.00;;;;;;5022395;28;20411;-70
2023/05/31 09:47:16;;;;;;;5.30;4.90;;;23.70;1.00;;;;;;5022213;28;20438;-69
2023/05/31 09:49:43;;;;;;;5.97;5.47;;;23.60;1.00;;;;;;5020965;28;20411;-69
2023/05/31 09:52:13;;;;;;;6.17;4.83;;;23.50;1.00;;;;;;5004453;28;20415;-70
2023/05/31 09:54:39;;;;;;;12.03;6.57;;;23.50;1.00;;;;;;5004286;28;20923;-69
2023/05/31 09:57:05;;;;;;;5.97;5.40;;;23.60;1.00;;;;;;5023665;28;20439;-70
2023/05/31 09:59:34;;;;;;;5.67;5.20;;;23.70;1.00;;;;;;5024778;28;20466;-70
2023/05/31 10:02:02;;;;;;;6.00;5.50;;;23.80;1.00;;;;;;5024680;28;20417;-70
2023/05/31 10:04:29;;;;;;;5.00;4.60;;;23.80;1.00;;;;;;5023875;28;20426;-70
2023/05/31 10:06:55;;;;;;;5.70;4.40;;;23.80;1.00;;;;;;5023086;28;20500;-70
2023/05/31 10:09:21;;;;;;;5.17;4.77;;;24.00;1.00;;;;;;5023377;28;20460;-69
2023/05/31 10:11:50;;;;;;;6.03;5.30;;;23.90;1.00;;;;;;5022771;28;20182;-69
2023/05/31 10:14:25;;;;;;;6.10;5.50;;;23.90;1.00;;;;;;5023016;28;20211;-70
2023/05/31 10:16:58;;;;;;;5.10;4.70;;;23.90;1.00;;;;;;5005009;28;20459;-69
2023/05/31 10:19:35;;;;;;;6.17;5.50;;;24.00;1.00;;;;;;5006187;28;20521;-70
2023/05/31 10:22:03;;;;;;;8.93;4.80;;;23.90;1.00;;;;;;5023537;28;20418;-68
2023/05/31 10:24:37;;;;;;;5.17;4.77;;;23.50;1.00;;;;;;5024994;28;20419;-69
2023/05/31 10:27:14;;;;;;;7.67;5.60;;;23.60;1.00;;;;;;5023425;28;20778;-69
2023/05/31 10:29:43;;;;;;;5.43;4.93;;;23.70;1.00;;;;;;5024000;28;20402;-69
2023/05/31 10:32:15;;;;;;;5.57;5.20;;;23.50;1.00;;;;;;5007218;28;20450;-69
2023/05/31 10:34:41;;;;;;;6.00;5.47;;;23.50;1.00;;;;;;5025819;28;20498;-69
2023/05/31 10:37:08;;;;;;;5.53;5.13;;;23.30;1.00;;;;;;5025723;28;20457;-68
2023/05/31 10:39:59;;;;;;;5.83;5.20;;;23.30;1.00;;;;;;5008097;28;20243;-69
2023/05/31 10:42:33;;;;;;;6.03;5.60;;;23.20;1.00;;;;;;5025607;28;20506;-69
2023/05/31 10:45:12;;;;;;;5.70;5.20;;;23.30;1.00;;;;;;5025111;28;20431;-69
2023/05/31 10:48:06;;;;;;;6.77;5.07;;;23.50;1.00;;;;;;5023870;28;20430;-69
2023/05/31 10:50:32;;;;;;;7.93;5.37;;;23.70;1.00;;;;;;5023780;28;20826;-70
2023/05/31 10:53:10;;;;;;;6.03;5.43;;;23.70;1.00;;;;;;5023890;28;20410;-69
2023/05/31 10:55:43;;;;;;;11.53;5.67;;;23.80;1.00;;;;;;5006022;28;20195;-69
2023/05/31 10:58:38;;;;;;;5.73;5.23;;;23.90;1.00;;;;;;5005866;28;20520;-69
2023/05/31 11:01:06;;;;;;;7.27;6.57;;;23.90;1.00;;;;;;5007366;28;20740;-69
2023/05/31 11:03:34;;;;;;;7.03;4.77;;;24.10;1.00;;;;;;5007582;28;20431;-69
2023/05/31 11:06:03;;;;;;;5.50;5.00;;;24.20;1.00;;;;;;5025015;28;20509;-69
2023/05/31 11:08:30;;;;;;;5.33;4.83;;;24.20;1.00;;;;;;5025489;28;20466;-70
2023/05/31 11:11:25;;;;;;;5.00;4.60;;;24.10;1.00;;;;;;5007266;28;20430;-68
2023/05/31 11:14:06;;;;;;;10.07;5.77;;;24.30;1.00;;;;;;5023710;28;20443;-69
2023/05/31 11:16:46;;;;;;;5.13;4.73;;;24.30;1.00;;;;;;5025017;28;20481;-69
2023/05/31 11:19:15;;;;;;;6.60;5.93;;;24.10;1.00;;;;;;5024284;28;20458;-70
2023/05/31 11:21:47;;;;;;;9.60;6.23;;;24.30;1.00;;;;;;5023695;28;20411;-69
2023/05/31 11:24:26;;;;;;;4.90;4.60;;;24.50;1.00;;;;;;5024158;28;20826;-69
2023/05/31 11:26:53;;;;;;;5.00;4.70;;;24.20;1.00;;;;;;5024585;28;20434;-69
2023/05/31 11:29:19;;;;;;;5.80;5.17;;;24.30;1.00;;;;;;5021457;28;20419;-70
2023/05/31 11:31:50;;;;;;;4.53;4.20;;;24.30;1.00;;;;;;5021207;28;20419;-70
2023/05/31 11:34:23;;;;;;;5.93;5.47;;;24.50;1.00;;;;;;5023493;28;20172;-69
2023/05/31 11:36:49;;;;;;;9.53;5.30;;;24.40;1.00;;;;;;5024219;28;20439;-69
2023/05/31 11:39:16;;;;;;;5.97;5.43;;;24.40;1.00;;;;;;5024266;28;21006;-68
2023/05/31 11:41:43;;;;;;;6.03;4.63;;;24.50;1.00;;;;;;5006207;28;20176;-69
2023/05/31 11:44:11;;;;;;;5.23;4.93;;;24.60;1.00;;;;;;5023184;28;20422;-70
2023/05/31 11:46:41;;;;;;;6.87;5.60;;;24.70;1.00;;;;;;5022555;28;20415;-70
2023/05/31 11:49:09;;;;;;;5.63;5.27;;;24.90;1.00;;;;;;5021555;28;20912;-70
2023/05/31 11:51:36;;;;;;;5.87;4.83;;;24.90;1.00;;;;;;5022501;28;20420;-69
2023/05/31 11:54:03;;;;;;;5.33;4.93;;;25.00;1.00;;;;;;5022214;28;20419;-69
2023/05/31 11:56:30;;;;;;;6.80;5.00;;;25.10;1.00;;;;;;5021501;28;20415;-70
2023/05/31 11:58:59;;;;;;;55.13;15.87;;;24.80;1.00;;;;;;5003248;28;21094;-71
2023/05/31 12:01:25;;;;;;;5.73;5.17;;;24.50;1.00;;;;;;5005985;28;20426;-70
2023/05/31 12:03:59;;;;;;;5.43;4.83;;;24.50;1.00;;;;;;5022771;28;20905;-70
2023/05/31 12:06:26;;;;;;;5.80;5.23;;;24.80;1.00;;;;;;5021715;28;20171;-70
2023/05/31 12:08:55;;;;;;;7.20;5.13;;;25.00;1.00;;;;;;5004723;28;20414;-69
2023/05/31 12:11:21;;;;;;;8.00;4.97;;;25.00;1.00;;;;;;5021270;28;20458;-70
2023/05/31 12:13:47;;;;;;;5.00;4.60;;;25.10;1.00;;;;;;5021225;28;20406;-70
2023/05/31 12:16:13;;;;;;;6.57;5.00;;;25.10;1.00;;;;;;5022427;28;20419;-70
2023/05/31 12:18:39;;;;;;;9.00;4.80;;;24.90;1.00;;;;;;5021589;28;20466;-70
2023/05/31 12:21:07;;;;;;;5.27;4.87;;;25.00;1.00;;;;;;5020957;28;20172;-70
2023/05/31 12:23:50;;;;;;;9.20;4.60;;;25.30;1.00;;;;;;5021095;28;20203;-69
2023/05/31 12:26:15;;;;;;;5.20;4.70;;;25.40;1.00;;;;;;5020608;28;20406;-69
2023/05/31 12:28:42;;;;;;;7.93;6.50;;;25.30;1.00;;;;;;5021396;28;20474;-72
2023/05/31 12:31:08;;;;;;;5.33;4.90;;;25.30;1.00;;;;;;5021687;28;20239;-70
2023/05/31 12:33:36;;;;;;;5.07;4.67;;;25.30;1.00;;;;;;5020760;28;20438;-70
2023/05/31 12:36:04;;;;;;;8.97;6.00;;;25.20;1.00;;;;;;5020985;28;20478;-70
2023/05/31 12:38:31;;;;;;;7.17;5.70;;;25.10;1.00;;;;;;5020503;28;20470;-70
2023/05/31 12:40:57;;;;;;;5.30;4.80;;;25.10;1.00;;;;;;5020400;28;20542;-69
2023/05/31 12:43:22;;;;;;;5.33;4.83;;;25.10;1.00;;;;;;5002499;28;20430;-69
2023/05/31 12:45:48;;;;;;;4.37;4.07;;;25.00;1.00;;;;;;5001995;28;20188;-70
2023/05/31 12:48:13;;;;;;;5.00;4.70;;;25.10;1.00;;;;;;5020418;28;20231;-73
2023/05/31 12:50:46;;;;;;;8.60;4.93;;;25.30;1.00;;;;;;5020494;28;20187;-69
2023/05/31 12:53:12;;;;;;;7.53;4.70;;;25.50;1.00;;;;;;5020617;28;20206;-70
2023/05/31 12:55:38;;;;;;;5.40;4.90;;;25.40;1.00;;;;;;5020828;28;20422;-70
2023/05/31 12:58:04;;;;;;;5.70;5.20;;;25.40;1.00;;;;;;5020578;28;20937;-70
2023/05/31 13:00:29;;;;;;;5.37;4.67;;;25.20;1.00;;;;;;5021353;28;20180;-70
2023/05/31 13:02:56;;;;;;;5.20;4.80;;;25.20;1.00;;;;;;5020788;28;20589;-70